Atlanta, Georgia
Current Conditions -  °F | °C
As of 4:52 AM on Saturday 20 Dec 2014 (Local Time) from KATL Reporting Station
Light Rain Light Rain  
Wind Chill: 43°   Ceiling: 5500
Heat Index: 43°   Visibility: 6mi
Dew Point: 39°   Wind: 0mph
Humidity: 86%   Direction: NA
Pressure: 30.13"   Gusts: NA
Location:  33.75°N, 84.39°W
Report Text: KATL 200952Z 00000KT 6SM -RA BR FEW041 OVC055 06/04 A3013 RMK AO2 SLP206 P0005 T00610039
Loading
Personal Weather Stations






























Interactive Weather Map New forecast layout! Learn more

10-Day Weather Forecast

Advertisements
Track Severe Weather on mobile